Roanoke — WDD9656 — position and weather

sailwx.info

Track history (hours):
 
Tides and Currents Weather Stations Pressure Air Temp Water Temp Dewpoint Dewpoint Depression Visibility Wind Speed Wind Dir Waves Ship Positions

Roanoke

Owner: Vane Line Bunkering, Philadelphia, PA. More information available from US FCC via Universal Licensing System and Coast Guard Vessel Documentation Center.

Last reported at 2018-Jul-15 16:39 UTC. Time now 2018-Jul-15 21:00 UTC.
Position N 38°12' W 075°58'.

Length 32 m; draft 13 m.

Type: Towing. MMSI: 367314510.

Date/timePositionNaut miles runAvg speedWind from/ knotsBaromVisibWave heightAir tempDewpointWater temp
2018-Jul-15 16:39N 38°12' W 075°58'7 6.1
2018-Jul-15 15:28N 38°15' W 075°50'12 3.3
2018-Jul-15 11:41N 38°22' W 075°37'0 0.0
2018-Jul-15 04:21N 38°22' W 075°37'0 0.0
2018-Jul-15 04:00N 38°22' W 075°37'0 0.2
2018-Jul-15 03:29N 38°22' W 075°37'1 1.3
2018-Jul-15 03:00N 38°21' W 075°37'47 4.2
2018-Jul-14 15:56N 38°47' W 076°27'4 8.6
2018-Jul-14 15:30N 38°51' W 076°26'4 8.4
2018-Jul-14 15:00N 38°55' W 076°25'4 8.1
2018-Jul-14 14:30N 38°59' W 076°23'8 7.7
2018-Jul-14 13:30N 39°06' W 076°20'5 7.1
2018-Jul-14 12:46N 39°11' W 076°18'2 6.6
2018-Jul-14 12:30N 39°12' W 076°16'3 6.5
2018-Jul-14 12:00N 39°15' W 076°14'3 6.1
2018-Jul-14 11:29N 39°18' W 076°13'3 6.2
2018-Jul-14 11:01N 39°21' W 076°11'3 6.6
2018-Jul-14 10:30N 39°22' W 076°07'4 7.2
2018-Jul-14 09:59N 39°24' W 076°03'4 7.9
2018-Jul-14 09:28N 39°27' W 075°59'4 8.3
2018-Jul-14 09:00N 39°30' W 075°56'4 8.5
2018-Jul-14 08:31N 39°32' W 075°51'4 8.3
2018-Jul-14 08:00N 39°32' W 075°45'5 9.3
2018-Jul-14 07:31N 39°33' W 075°40'5 9.2
2018-Jul-14 07:00N 39°34' W 075°34'4 7.3
2018-Jul-14 06:30N 39°37' W 075°35'4 7.5
2018-Jul-14 06:01N 39°40' W 075°32'3 6.8
2018-Jul-14 05:30N 39°43' W 075°30'3 6.2
2018-Jul-14 05:01N 39°46' W 075°28'3 5.9
2018-Jul-14 04:31N 39°48' W 075°26'3 5.9
2018-Jul-14 04:01N 39°50' W 075°22'3 5.1
2018-Jul-14 03:30N 39°51' W 075°19'3 5.9
2018-Jul-14 03:00N 39°51' W 075°16'3 6.3
2018-Jul-14 02:30N 39°53' W 075°12'3 6.4
2018-Jul-14 02:00N 39°54' W 075°08'0 0.4
2018-Jul-14 01:31N 39°54' W 075°08'0 0.0
2018-Jul-14 01:01N 39°54' W 075°08'0 0.0
2018-Jul-14 00:30N 39°54' W 075°08'0 0.0
2018-Jul-14 00:00N 39°54' W 075°08'0 0.0
2018-Jul-13 23:30N 39°54' W 075°08'0 0.2
2018-Jul-13 23:00N 39°54' W 075°08'0 0.2
2018-Jul-13 22:31N 39°54' W 075°08'0 0.0
2018-Jul-13 22:00N 39°54' W 075°08'0 0.0
2018-Jul-13 21:30N 39°54' W 075°08'0 0.0
2018-Jul-13 21:00N 39°54' W 075°08'0 0.0
2018-Jul-13 20:31N 39°54' W 075°08'1 1.8
2018-Jul-13 20:00N 39°53' W 075°09'3 5.5
2018-Jul-13 19:30N 39°54' W 075°12'0 0.0
2018-Jul-13 19:01N 39°54' W 075°12'2 3.2
2018-Jul-13 18:30N 39°52' W 075°13'2 3.2
2018-Jul-13 18:00N 39°54' W 075°12'0 0.3
2018-Jul-13 17:30N 39°54' W 075°12'0 0.0
2018-Jul-13 17:00N 39°54' W 075°12'0 0.0
2018-Jul-13 16:31N 39°54' W 075°12'0 0.4
2018-Jul-13 16:00N 39°54' W 075°13'0 0.8
2018-Jul-13 15:30N 39°54' W 075°12'0 0.5
2018-Jul-13 15:00N 39°54' W 075°12'3 6.0
2018-Jul-13 14:30N 39°53' W 075°08'2 2.0
2018-Jul-13 13:30N 39°53' W 075°11'2 4.7
2018-Jul-13 13:00N 39°52' W 075°14'3 5.0
2018-Jul-13 12:30N 39°51' W 075°17'2 5.0
2018-Jul-13 12:01N 39°51' W 075°20'2 4.7
2018-Jul-13 11:30N 39°49' W 075°23'2 4.8
2018-Jul-13 11:01N 39°48' W 075°25'2 4.7
2018-Jul-13 10:30N 39°47' W 075°28'2 4.7
2018-Jul-13 10:00N 39°45' W 075°29'2 5.0
2018-Jul-13 09:31N 39°43' W 075°31'3 5.6
2018-Jul-13 09:00N 39°40' W 075°32'3 5.6
2018-Jul-13 08:30N 39°38' W 075°34'3 5.4
2018-Jul-13 08:01N 39°35' W 075°34'2 4.1
2018-Jul-13 07:31N 39°33' W 075°35'3 6.6
2018-Jul-13 07:01N 39°33' W 075°39'3 6.2
2018-Jul-13 06:30N 39°33' W 075°43'3 6.1
2018-Jul-13 06:00N 39°32' W 075°47'3 5.4
2018-Jul-13 05:30N 39°32' W 075°51'3 5.7
2018-Jul-13 05:01N 39°31' W 075°54'3 6.2
2018-Jul-13 04:31N 39°29' W 075°57'3 6.4
2018-Jul-13 04:00N 39°26' W 076°00'3 6.5
2018-Jul-13 03:30N 39°24' W 076°03'3 6.5
2018-Jul-13 03:00N 39°23' W 076°07'4 6.7
2018-Jul-13 02:28N 39°21' W 076°11'3 6.2
2018-Jul-13 02:01N 39°19' W 076°13'3 6.4
2018-Jul-13 01:30N 39°15' W 076°14'4 6.4
2018-Jul-13 00:55N 39°12' W 076°16'3 6.3
2018-Jul-13 00:28N 39°10' W 076°18'4 6.4
2018-Jul-12 23:54N 39°06' W 076°20'3 6.4
2018-Jul-12 23:25N 39°04' W 076°21'3 6.5
2018-Jul-12 22:59N 39°01' W 076°22'3 6.5
2018-Jul-12 22:27N 38°57' W 076°24'3 6.6
2018-Jul-12 22:00N 38°55' W 076°25'4 7.3
2018-Jul-12 21:30N 38°51' W 076°26'46 1.4
2018-Jul-11 12:40N 38°21' W 075°42'1 6.0
2018-Jul-11 12:30N 38°20' W 075°40'2 5.0
2018-Jul-11 12:01N 38°21' W 075°37'1 1.6
2018-Jul-11 11:30N 38°22' W 075°37'66 1.4
2018-Jul-09 12:46N 37°21' W 076°10'2 7.3
2018-Jul-09 12:30N 37°20' W 076°11'  
Track history (hours):
 
Tides and Currents Weather Stations Pressure Air Temp Water Temp Dewpoint Dewpoint Depression Visibility Wind Speed Wind Dir Waves Ship Positions

Roanoke

Owner: Vane Line Bunkering, Philadelphia, PA. More information available from US FCC via Universal Licensing System and Coast Guard Vessel Documentation Center.

Last reported at 2018-Jul-15 16:39 UTC. Time now 2018-Jul-15 21:00 UTC.
Position N 38°12' W 075°58'.

Length 32 m; draft 13 m.

Type: Towing. MMSI: 367314510.

Date/timePositionNaut miles runAvg speedWind from/ knotsBaromVisibWave heightAir tempDewpointWater temp
2018-Jul-15 16:39N 38°12' W 075°58'7 6.1
2018-Jul-15 15:28N 38°15' W 075°50'12 3.3
2018-Jul-15 11:41N 38°22' W 075°37'0 0.0
2018-Jul-15 04:21N 38°22' W 075°37'0 0.0
2018-Jul-15 04:00N 38°22' W 075°37'0 0.2
2018-Jul-15 03:29N 38°22' W 075°37'1 1.3
2018-Jul-15 03:00N 38°21' W 075°37'47 4.2
2018-Jul-14 15:56N 38°47' W 076°27'4 8.6
2018-Jul-14 15:30N 38°51' W 076°26'4 8.4
2018-Jul-14 15:00N 38°55' W 076°25'4 8.1
2018-Jul-14 14:30N 38°59' W 076°23'8 7.7
2018-Jul-14 13:30N 39°06' W 076°20'5 7.1
2018-Jul-14 12:46N 39°11' W 076°18'2 6.6
2018-Jul-14 12:30N 39°12' W 076°16'3 6.5
2018-Jul-14 12:00N 39°15' W 076°14'3 6.1
2018-Jul-14 11:29N 39°18' W 076°13'3 6.2
2018-Jul-14 11:01N 39°21' W 076°11'3 6.6
2018-Jul-14 10:30N 39°22' W 076°07'4 7.2
2018-Jul-14 09:59N 39°24' W 076°03'4 7.9
2018-Jul-14 09:28N 39°27' W 075°59'4 8.3
2018-Jul-14 09:00N 39°30' W 075°56'4 8.5
2018-Jul-14 08:31N 39°32' W 075°51'4 8.3
2018-Jul-14 08:00N 39°32' W 075°45'5 9.3
2018-Jul-14 07:31N 39°33' W 075°40'5 9.2
2018-Jul-14 07:00N 39°34' W 075°34'4 7.3
2018-Jul-14 06:30N 39°37' W 075°35'4 7.5
2018-Jul-14 06:01N 39°40' W 075°32'3 6.8
2018-Jul-14 05:30N 39°43' W 075°30'3 6.2
2018-Jul-14 05:01N 39°46' W 075°28'3 5.9
2018-Jul-14 04:31N 39°48' W 075°26'3 5.9
2018-Jul-14 04:01N 39°50' W 075°22'3 5.1
2018-Jul-14 03:30N 39°51' W 075°19'3 5.9
2018-Jul-14 03:00N 39°51' W 075°16'3 6.3
2018-Jul-14 02:30N 39°53' W 075°12'3 6.4
2018-Jul-14 02:00N 39°54' W 075°08'0 0.4
2018-Jul-14 01:31N 39°54' W 075°08'0 0.0
2018-Jul-14 01:01N 39°54' W 075°08'0 0.0
2018-Jul-14 00:30N 39°54' W 075°08'0 0.0
2018-Jul-14 00:00N 39°54' W 075°08'0 0.0
2018-Jul-13 23:30N 39°54' W 075°08'0 0.2
2018-Jul-13 23:00N 39°54' W 075°08'0 0.2
2018-Jul-13 22:31N 39°54' W 075°08'0 0.0
2018-Jul-13 22:00N 39°54' W 075°08'0 0.0
2018-Jul-13 21:30N 39°54' W 075°08'0 0.0
2018-Jul-13 21:00N 39°54' W 075°08'0 0.0
2018-Jul-13 20:31N 39°54' W 075°08'1 1.8
2018-Jul-13 20:00N 39°53' W 075°09'3 5.5
2018-Jul-13 19:30N 39°54' W 075°12'0 0.0
2018-Jul-13 19:01N 39°54' W 075°12'2 3.2
2018-Jul-13 18:30N 39°52' W 075°13'2 3.2
2018-Jul-13 18:00N 39°54' W 075°12'0 0.3
2018-Jul-13 17:30N 39°54' W 075°12'0 0.0
2018-Jul-13 17:00N 39°54' W 075°12'0 0.0
2018-Jul-13 16:31N 39°54' W 075°12'0 0.4
2018-Jul-13 16:00N 39°54' W 075°13'0 0.8
2018-Jul-13 15:30N 39°54' W 075°12'0 0.5
2018-Jul-13 15:00N 39°54' W 075°12'3 6.0
2018-Jul-13 14:30N 39°53' W 075°08'2 2.0
2018-Jul-13 13:30N 39°53' W 075°11'2 4.7
2018-Jul-13 13:00N 39°52' W 075°14'3 5.0
2018-Jul-13 12:30N 39°51' W 075°17'2 5.0
2018-Jul-13 12:01N 39°51' W 075°20'2 4.7
2018-Jul-13 11:30N 39°49' W 075°23'2 4.8
2018-Jul-13 11:01N 39°48' W 075°25'2 4.7
2018-Jul-13 10:30N 39°47' W 075°28'2 4.7
2018-Jul-13 10:00N 39°45' W 075°29'2 5.0
2018-Jul-13 09:31N 39°43' W 075°31'3 5.6
2018-Jul-13 09:00N 39°40' W 075°32'3 5.6
2018-Jul-13 08:30N 39°38' W 075°34'3 5.4
2018-Jul-13 08:01N 39°35' W 075°34'2 4.1
2018-Jul-13 07:31N 39°33' W 075°35'3 6.6
2018-Jul-13 07:01N 39°33' W 075°39'3 6.2
2018-Jul-13 06:30N 39°33' W 075°43'3 6.1
2018-Jul-13 06:00N 39°32' W 075°47'3 5.4
2018-Jul-13 05:30N 39°32' W 075°51'3 5.7
2018-Jul-13 05:01N 39°31' W 075°54'3 6.2
2018-Jul-13 04:31N 39°29' W 075°57'3 6.4
2018-Jul-13 04:00N 39°26' W 076°00'3 6.5
2018-Jul-13 03:30N 39°24' W 076°03'3 6.5
2018-Jul-13 03:00N 39°23' W 076°07'4 6.7
2018-Jul-13 02:28N 39°21' W 076°11'3 6.2
2018-Jul-13 02:01N 39°19' W 076°13'3 6.4
2018-Jul-13 01:30N 39°15' W 076°14'4 6.4
2018-Jul-13 00:55N 39°12' W 076°16'3 6.3
2018-Jul-13 00:28N 39°10' W 076°18'4 6.4
2018-Jul-12 23:54N 39°06' W 076°20'3 6.4
2018-Jul-12 23:25N 39°04' W 076°21'3 6.5
2018-Jul-12 22:59N 39°01' W 076°22'3 6.5
2018-Jul-12 22:27N 38°57' W 076°24'3 6.6
2018-Jul-12 22:00N 38°55' W 076°25'4 7.3
2018-Jul-12 21:30N 38°51' W 076°26'46 1.4
2018-Jul-11 12:40N 38°21' W 075°42'1 6.0
2018-Jul-11 12:30N 38°20' W 075°40'2 5.0
2018-Jul-11 12:01N 38°21' W 075°37'1 1.6
2018-Jul-11 11:30N 38°22' W 075°37'66 1.4
2018-Jul-09 12:46N 37°21' W 076°10'2 7.3
2018-Jul-09 12:30N 37°20' W 076°11'  

Dump ship's entire track history